KSEE/SEE METAR and TAF weather

Enter ICAO airport designator
Station Type Date Time Source
KSEE METAR 2021/09/24 05:55 UTC NOAA

KSEE 240555Z AUTO 29004KT 10SM CLR 19/16 A2992 RMK AO2


Station Type Date Time Source
KSEE Decoded METAR 2021/09/24 05:55 UTC NOAA

San Diego/El Cajon, Gillespie Field Airport, CA, United States (KSEE) 32-49-34N 116-58-20W
Sep 24, 2021 - 01:55 AM EDT / 2021.09.24 0555 UTC
Wind: from the WNW (290 degrees) at 5 MPH (4 KT):0
Visibility: 10 mile(s):0
Sky conditions: clear
Temperature: 66 F (19 C)
Dew Point: 60 F (16 C)
Relative Humidity: 82%
Pressure (altimeter): 29.92 in. Hg (1013 hPa)
ob: KSEE 240555Z AUTO 29004KT 10SM CLR 19/16 A2992 RMK AO2
cycle: 6

Station Type Date Time Source
KSEE TAF UTC NOAA

Error!

Example: see airport list